sensor_id;sensor_type;location;lat;lon;timestamp;P1;durP1;ratioP1;P2;durP2;ratioP2
72621;SDS011;60665;53.506;9.582;2023-12-20T00:01:40;4.10;;;0.77;;
72621;SDS011;60665;53.506;9.582;2023-12-20T00:05:04;6.35;;;1.10;;
72621;SDS011;60665;53.506;9.582;2023-12-20T00:08:28;9.43;;;1.05;;
72621;SDS011;60665;53.506;9.582;2023-12-20T00:11:52;9.82;;;1.45;;
72621;SDS011;60665;53.506;9.582;2023-12-20T00:15:16;9.40;;;0.98;;
72621;SDS011;60665;53.506;9.582;2023-12-20T00:18:40;5.07;;;0.80;;
72621;SDS011;60665;53.506;9.582;2023-12-20T00:22:03;5.75;;;1.15;;
72621;SDS011;60665;53.506;9.582;2023-12-20T00:25:28;11.52;;;1.10;;
72621;SDS011;60665;53.506;9.582;2023-12-20T00:28:53;7.13;;;0.90;;
72621;SDS011;60665;53.506;9.582;2023-12-20T00:32:17;11.65;;;1.27;;
72621;SDS011;60665;53.506;9.582;2023-12-20T00:35:41;5.03;;;1.25;;
72621;SDS011;60665;53.506;9.582;2023-12-20T00:39:04;8.95;;;1.20;;
72621;SDS011;60665;53.506;9.582;2023-12-20T00:42:28;3.70;;;0.90;;
72621;SDS011;60665;53.506;9.582;2023-12-20T00:45:52;4.53;;;0.85;;
72621;SDS011;60665;53.506;9.582;2023-12-20T00:49:16;4.82;;;0.85;;
72621;SDS011;60665;53.506;9.582;2023-12-20T00:52:41;7.72;;;1.08;;
72621;SDS011;60665;53.506;9.582;2023-12-20T00:56:05;7.00;;;1.10;;
72621;SDS011;60665;53.506;9.582;2023-12-20T00:59:29;6.65;;;1.15;;
72621;SDS011;60665;53.506;9.582;2023-12-20T01:02:53;6.93;;;0.93;;
72621;SDS011;60665;53.506;9.582;2023-12-20T01:06:17;6.43;;;1.08;;
72621;SDS011;60665;53.506;9.582;2023-12-20T01:09:41;8.18;;;1.33;;
72621;SDS011;60665;53.506;9.582;2023-12-20T01:13:05;10.35;;;1.23;;
72621;SDS011;60665;53.506;9.582;2023-12-20T01:16:30;14.27;;;1.15;;
72621;SDS011;60665;53.506;9.582;2023-12-20T01:19:53;4.00;;;0.68;;
72621;SDS011;60665;53.506;9.582;2023-12-20T01:23:17;8.25;;;1.17;;
72621;SDS011;60665;53.506;9.582;2023-12-20T01:26:41;6.18;;;1.17;;
72621;SDS011;60665;53.506;9.582;2023-12-20T01:30:05;10.57;;;1.10;;
72621;SDS011;60665;53.506;9.582;2023-12-20T01:33:29;12.02;;;1.40;;
72621;SDS011;60665;53.506;9.582;2023-12-20T01:36:53;12.32;;;1.20;;
72621;SDS011;60665;53.506;9.582;2023-12-20T01:40:21;10.55;;;1.83;;
72621;SDS011;60665;53.506;9.582;2023-12-20T01:43:45;5.28;;;0.80;;
72621;SDS011;60665;53.506;9.582;2023-12-20T01:47:09;7.53;;;1.10;;
72621;SDS011;60665;53.506;9.582;2023-12-20T01:50:34;11.73;;;1.40;;
72621;SDS011;60665;53.506;9.582;2023-12-20T01:53:59;5.88;;;1.00;;
72621;SDS011;60665;53.506;9.582;2023-12-20T01:57:27;6.43;;;1.15;;
72621;SDS011;60665;53.506;9.582;2023-12-20T02:00:51;9.35;;;1.13;;
72621;SDS011;60665;53.506;9.582;2023-12-20T02:04:15;8.90;;;1.08;;
72621;SDS011;60665;53.506;9.582;2023-12-20T02:07:40;7.93;;;0.85;;
72621;SDS011;60665;53.506;9.582;2023-12-20T02:11:03;8.82;;;1.15;;
72621;SDS011;60665;53.506;9.582;2023-12-20T02:14:27;5.93;;;0.77;;
72621;SDS011;60665;53.506;9.582;2023-12-20T02:17:51;3.35;;;0.93;;
72621;SDS011;60665;53.506;9.582;2023-12-20T02:21:15;4.50;;;0.82;;
72621;SDS011;60665;53.506;9.582;2023-12-20T02:24:39;8.88;;;1.27;;
72621;SDS011;60665;53.506;9.582;2023-12-20T02:28:03;3.58;;;0.90;;
72621;SDS011;60665;53.506;9.582;2023-12-20T02:31:27;14.05;;;1.10;;
72621;SDS011;60665;53.506;9.582;2023-12-20T02:34:51;8.65;;;0.90;;
72621;SDS011;60665;53.506;9.582;2023-12-20T02:38:17;14.07;;;1.30;;
72621;SDS011;60665;53.506;9.582;2023-12-20T02:41:41;6.05;;;0.70;;
72621;SDS011;60665;53.506;9.582;2023-12-20T02:45:06;10.80;;;1.10;;
72621;SDS011;60665;53.506;9.582;2023-12-20T02:48:30;10.80;;;1.10;;
72621;SDS011;60665;53.506;9.582;2023-12-20T02:51:54;7.28;;;1.10;;
72621;SDS011;60665;53.506;9.582;2023-12-20T02:55:17;5.22;;;0.60;;
72621;SDS011;60665;53.506;9.582;2023-12-20T02:58:41;5.88;;;1.08;;
72621;SDS011;60665;53.506;9.582;2023-12-20T03:02:05;10.95;;;1.25;;
72621;SDS011;60665;53.506;9.582;2023-12-20T03:05:29;14.55;;;1.63;;
72621;SDS011;60665;53.506;9.582;2023-12-20T03:08:53;11.32;;;1.15;;
72621;SDS011;60665;53.506;9.582;2023-12-20T03:12:17;7.60;;;1.27;;
72621;SDS011;60665;53.506;9.582;2023-12-20T03:15:41;4.57;;;0.85;;
72621;SDS011;60665;53.506;9.582;2023-12-20T03:19:05;9.40;;;0.85;;
72621;SDS011;60665;53.506;9.582;2023-12-20T03:22:29;7.97;;;1.30;;
72621;SDS011;60665;53.506;9.582;2023-12-20T03:25:53;7.10;;;1.00;;
72621;SDS011;60665;53.506;9.582;2023-12-20T03:29:17;5.32;;;0.70;;
72621;SDS011;60665;53.506;9.582;2023-12-20T03:32:41;5.90;;;1.02;;
72621;SDS011;60665;53.506;9.582;2023-12-20T03:36:05;9.23;;;1.30;;
72621;SDS011;60665;53.506;9.582;2023-12-20T03:39:28;4.93;;;0.70;;
72621;SDS011;60665;53.506;9.582;2023-12-20T03:42:52;13.05;;;1.52;;
72621;SDS011;60665;53.506;9.582;2023-12-20T03:46:16;8.23;;;1.10;;
72621;SDS011;60665;53.506;9.582;2023-12-20T03:49:40;6.38;;;1.00;;
72621;SDS011;60665;53.506;9.582;2023-12-20T03:53:04;5.18;;;1.20;;
72621;SDS011;60665;53.506;9.582;2023-12-20T03:56:28;8.48;;;1.30;;
72621;SDS011;60665;53.506;9.582;2023-12-20T03:59:52;8.18;;;1.10;;
72621;SDS011;60665;53.506;9.582;2023-12-20T04:03:16;8.45;;;0.93;;
72621;SDS011;60665;53.506;9.582;2023-12-20T04:06:39;5.65;;;0.88;;
72621;SDS011;60665;53.506;9.582;2023-12-20T04:10:04;7.60;;;1.35;;
72621;SDS011;60665;53.506;9.582;2023-12-20T04:13:28;12.27;;;1.08;;
72621;SDS011;60665;53.506;9.582;2023-12-20T04:16:52;5.80;;;0.70;;
72621;SDS011;60665;53.506;9.582;2023-12-20T04:20:16;8.35;;;1.40;;
72621;SDS011;60665;53.506;9.582;2023-12-20T04:23:40;7.25;;;1.10;;
72621;SDS011;60665;53.506;9.582;2023-12-20T04:27:04;4.18;;;1.02;;
72621;SDS011;60665;53.506;9.582;2023-12-20T04:30:28;9.13;;;1.33;;
72621;SDS011;60665;53.506;9.582;2023-12-20T04:33:52;3.78;;;0.82;;
72621;SDS011;60665;53.506;9.582;2023-12-20T04:37:16;11.65;;;1.35;;
72621;SDS011;60665;53.506;9.582;2023-12-20T04:40:40;8.07;;;1.20;;
72621;SDS011;60665;53.506;9.582;2023-12-20T04:44:04;10.20;;;1.30;;
72621;SDS011;60665;53.506;9.582;2023-12-20T04:47:28;7.95;;;1.35;;
72621;SDS011;60665;53.506;9.582;2023-12-20T04:50:52;11.55;;;1.45;;
72621;SDS011;60665;53.506;9.582;2023-12-20T04:54:15;9.18;;;1.42;;
72621;SDS011;60665;53.506;9.582;2023-12-20T04:57:39;9.10;;;1.23;;
72621;SDS011;60665;53.506;9.582;2023-12-20T05:01:03;12.90;;;1.30;;
72621;SDS011;60665;53.506;9.582;2023-12-20T05:04:29;12.55;;;1.30;;
72621;SDS011;60665;53.506;9.582;2023-12-20T05:07:53;9.32;;;1.15;;
72621;SDS011;60665;53.506;9.582;2023-12-20T05:11:17;5.18;;;0.95;;
72621;SDS011;60665;53.506;9.582;2023-12-20T05:14:40;9.77;;;1.52;;
72621;SDS011;60665;53.506;9.582;2023-12-20T05:18:04;7.75;;;1.30;;
72621;SDS011;60665;53.506;9.582;2023-12-20T05:21:31;7.22;;;1.20;;
72621;SDS011;60665;53.506;9.582;2023-12-20T05:24:55;5.35;;;1.30;;
72621;SDS011;60665;53.506;9.582;2023-12-20T05:28:19;12.90;;;1.95;;
72621;SDS011;60665;53.506;9.582;2023-12-20T05:31:43;7.47;;;1.20;;
72621;SDS011;60665;53.506;9.582;2023-12-20T05:35:07;6.70;;;1.48;;
72621;SDS011;60665;53.506;9.582;2023-12-20T05:38:34;13.15;;;1.13;;
72621;SDS011;60665;53.506;9.582;2023-12-20T05:41:58;13.93;;;1.83;;
72621;SDS011;60665;53.506;9.582;2023-12-20T05:45:21;4.65;;;1.08;;
72621;SDS011;60665;53.506;9.582;2023-12-20T05:48:47;7.15;;;1.42;;
72621;SDS011;60665;53.506;9.582;2023-12-20T05:52:11;6.80;;;1.50;;
72621;SDS011;60665;53.506;9.582;2023-12-20T05:55:35;9.35;;;1.60;;
72621;SDS011;60665;53.506;9.582;2023-12-20T05:58:59;14.25;;;1.60;;
72621;SDS011;60665;53.506;9.582;2023-12-20T06:02:23;8.32;;;1.42;;
72621;SDS011;60665;53.506;9.582;2023-12-20T06:05:47;7.45;;;1.40;;
72621;SDS011;60665;53.506;9.582;2023-12-20T06:09:11;12.05;;;1.45;;
72621;SDS011;60665;53.506;9.582;2023-12-20T06:12:35;8.10;;;1.20;;
72621;SDS011;60665;53.506;9.582;2023-12-20T06:15:59;8.07;;;1.30;;
72621;SDS011;60665;53.506;9.582;2023-12-20T06:19:23;5.93;;;1.38;;
72621;SDS011;60665;53.506;9.582;2023-12-20T06:22:47;5.65;;;1.20;;
72621;SDS011;60665;53.506;9.582;2023-12-20T06:26:10;7.97;;;1.33;;
72621;SDS011;60665;53.506;9.582;2023-12-20T06:29:34;8.65;;;1.13;;
72621;SDS011;60665;53.506;9.582;2023-12-20T06:32:59;6.75;;;1.27;;
72621;SDS011;60665;53.506;9.582;2023-12-20T06:36:24;6.90;;;1.15;;
72621;SDS011;60665;53.506;9.582;2023-12-20T06:39:48;13.35;;;1.75;;
72621;SDS011;60665;53.506;9.582;2023-12-20T06:43:12;9.32;;;1.33;;
72621;SDS011;60665;53.506;9.582;2023-12-20T06:46:36;8.25;;;1.00;;
72621;SDS011;60665;53.506;9.582;2023-12-20T06:50:00;8.07;;;1.40;;
72621;SDS011;60665;53.506;9.582;2023-12-20T06:53:25;10.10;;;1.50;;
72621;SDS011;60665;53.506;9.582;2023-12-20T06:56:48;9.68;;;1.48;;
72621;SDS011;60665;53.506;9.582;2023-12-20T07:00:12;11.00;;;1.50;;
72621;SDS011;60665;53.506;9.582;2023-12-20T07:03:37;9.45;;;1.50;;
72621;SDS011;60665;53.506;9.582;2023-12-20T07:07:04;12.23;;;1.52;;
72621;SDS011;60665;53.506;9.582;2023-12-20T07:10:28;8.38;;;1.20;;
72621;SDS011;60665;53.506;9.582;2023-12-20T07:13:52;7.63;;;1.20;;
72621;SDS011;60665;53.506;9.582;2023-12-20T07:17:16;10.95;;;1.40;;
72621;SDS011;60665;53.506;9.582;2023-12-20T07:20:40;10.40;;;1.77;;
72621;SDS011;60665;53.506;9.582;2023-12-20T07:24:04;10.30;;;1.83;;
72621;SDS011;60665;53.506;9.582;2023-12-20T07:27:28;12.10;;;1.92;;
72621;SDS011;60665;53.506;9.582;2023-12-20T07:30:52;13.82;;;1.80;;
72621;SDS011;60665;53.506;9.582;2023-12-20T07:34:18;13.20;;;1.98;;
72621;SDS011;60665;53.506;9.582;2023-12-20T07:37:42;10.85;;;1.38;;
72621;SDS011;60665;53.506;9.582;2023-12-20T07:41:09;15.90;;;1.90;;
72621;SDS011;60665;53.506;9.582;2023-12-20T07:44:33;13.25;;;1.80;;
72621;SDS011;60665;53.506;9.582;2023-12-20T07:47:57;16.13;;;2.15;;
72621;SDS011;60665;53.506;9.582;2023-12-20T07:51:21;11.68;;;2.08;;
72621;SDS011;60665;53.506;9.582;2023-12-20T07:54:45;10.88;;;1.60;;
72621;SDS011;60665;53.506;9.582;2023-12-20T07:58:09;8.05;;;2.00;;
72621;SDS011;60665;53.506;9.582;2023-12-20T08:01:33;12.93;;;1.60;;
72621;SDS011;60665;53.506;9.582;2023-12-20T08:04:57;12.50;;;1.85;;
72621;SDS011;60665;53.506;9.582;2023-12-20T08:08:21;12.15;;;1.60;;
72621;SDS011;60665;53.506;9.582;2023-12-20T08:11:45;12.00;;;1.75;;
72621;SDS011;60665;53.506;9.582;2023-12-20T08:15:10;5.25;;;1.48;;
72621;SDS011;60665;53.506;9.582;2023-12-20T08:18:34;9.45;;;1.77;;
72621;SDS011;60665;53.506;9.582;2023-12-20T08:21:58;12.85;;;2.38;;
72621;SDS011;60665;53.506;9.582;2023-12-20T08:25:21;14.93;;;1.80;;
72621;SDS011;60665;53.506;9.582;2023-12-20T08:28:46;7.15;;;1.52;;
72621;SDS011;60665;53.506;9.582;2023-12-20T08:32:10;9.95;;;1.70;;
72621;SDS011;60665;53.506;9.582;2023-12-20T08:35:40;13.10;;;1.85;;
72621;SDS011;60665;53.506;9.582;2023-12-20T08:39:04;11.75;;;1.77;;
72621;SDS011;60665;53.506;9.582;2023-12-20T08:42:28;10.93;;;1.63;;
72621;SDS011;60665;53.506;9.582;2023-12-20T08:45:52;11.52;;;1.80;;
72621;SDS011;60665;53.506;9.582;2023-12-20T08:49:16;6.93;;;1.60;;
72621;SDS011;60665;53.506;9.582;2023-12-20T08:52:40;14.40;;;1.80;;
72621;SDS011;60665;53.506;9.582;2023-12-20T08:56:04;10.35;;;1.35;;
72621;SDS011;60665;53.506;9.582;2023-12-20T08:59:29;9.93;;;1.42;;
72621;SDS011;60665;53.506;9.582;2023-12-20T09:02:53;7.20;;;1.33;;
72621;SDS011;60665;53.506;9.582;2023-12-20T09:06:17;5.28;;;0.90;;
72621;SDS011;60665;53.506;9.582;2023-12-20T09:09:48;6.15;;;1.27;;
72621;SDS011;60665;53.506;9.582;2023-12-20T09:13:12;2.50;;;0.70;;
72621;SDS011;60665;53.506;9.582;2023-12-20T09:16:36;1.85;;;0.55;;
72621;SDS011;60665;53.506;9.582;2023-12-20T09:20:00;3.50;;;0.93;;
72621;SDS011;60665;53.506;9.582;2023-12-20T09:23:23;4.93;;;0.70;;
72621;SDS011;60665;53.506;9.582;2023-12-20T09:26:47;5.03;;;0.60;;
72621;SDS011;60665;53.506;9.582;2023-12-20T09:30:11;2.13;;;0.60;;
72621;SDS011;60665;53.506;9.582;2023-12-20T09:33:35;0.85;;;0.30;;
72621;SDS011;60665;53.506;9.582;2023-12-20T09:36:59;1.23;;;0.20;;
72621;SDS011;60665;53.506;9.582;2023-12-20T09:40:23;3.60;;;0.80;;
72621;SDS011;60665;53.506;9.582;2023-12-20T09:43:49;2.55;;;0.52;;
72621;SDS011;60665;53.506;9.582;2023-12-20T09:47:14;1.15;;;0.30;;
72621;SDS011;60665;53.506;9.582;2023-12-20T09:50:40;0.90;;;0.43;;
72621;SDS011;60665;53.506;9.582;2023-12-20T09:54:04;2.00;;;0.55;;
72621;SDS011;60665;53.506;9.582;2023-12-20T09:57:30;1.55;;;0.40;;
72621;SDS011;60665;53.506;9.582;2023-12-20T10:00:54;0.90;;;0.32;;
72621;SDS011;60665;53.506;9.582;2023-12-20T10:04:19;1.17;;;0.30;;
72621;SDS011;60665;53.506;9.582;2023-12-20T10:07:46;1.40;;;0.43;;
72621;SDS011;60665;53.506;9.582;2023-12-20T10:11:10;6.78;;;0.60;;
72621;SDS011;60665;53.506;9.582;2023-12-20T10:14:35;1.77;;;0.50;;
72621;SDS011;60665;53.506;9.582;2023-12-20T10:17:59;1.80;;;0.40;;
72621;SDS011;60665;53.506;9.582;2023-12-20T10:21:23;5.07;;;0.57;;
72621;SDS011;60665;53.506;9.582;2023-12-20T10:24:47;1.70;;;0.30;;
72621;SDS011;60665;53.506;9.582;2023-12-20T10:28:20;0.98;;;0.50;;
72621;SDS011;60665;53.506;9.582;2023-12-20T10:31:44;3.05;;;0.40;;
72621;SDS011;60665;53.506;9.582;2023-12-20T10:35:08;3.22;;;0.47;;
72621;SDS011;60665;53.506;9.582;2023-12-20T10:38:33;2.03;;;0.40;;
72621;SDS011;60665;53.506;9.582;2023-12-20T10:41:57;3.95;;;0.60;;
72621;SDS011;60665;53.506;9.582;2023-12-20T10:45:21;5.43;;;0.80;;
72621;SDS011;60665;53.506;9.582;2023-12-20T10:48:45;6.50;;;0.80;;
72621;SDS011;60665;53.506;9.582;2023-12-20T10:52:11;2.60;;;0.80;;
72621;SDS011;60665;53.506;9.582;2023-12-20T10:55:35;5.35;;;1.02;;
72621;SDS011;60665;53.506;9.582;2023-12-20T10:59:01;4.55;;;0.60;;
72621;SDS011;60665;53.506;9.582;2023-12-20T11:02:26;6.28;;;0.90;;
72621;SDS011;60665;53.506;9.582;2023-12-20T11:05:58;12.55;;;1.00;;
72621;SDS011;60665;53.506;9.582;2023-12-20T11:13:17;8.68;;;0.85;;
72621;SDS011;60665;53.506;9.582;2023-12-20T11:17:27;6.78;;;0.63;;
72621;SDS011;60665;53.506;9.582;2023-12-20T11:20:44;5.20;;;0.80;;
72621;SDS011;60665;53.506;9.582;2023-12-20T11:24:09;2.92;;;0.75;;
72621;SDS011;60665;53.506;9.582;2023-12-20T11:27:34;12.55;;;1.30;;
72621;SDS011;60665;53.506;9.582;2023-12-20T11:30:58;5.22;;;1.00;;
72621;SDS011;60665;53.506;9.582;2023-12-20T11:34:22;4.82;;;0.90;;
72621;SDS011;60665;53.506;9.582;2023-12-20T11:37:51;6.97;;;0.82;;
72621;SDS011;60665;53.506;9.582;2023-12-20T11:41:25;6.90;;;1.05;;
72621;SDS011;60665;53.506;9.582;2023-12-20T11:44:48;20.95;;;2.72;;
72621;SDS011;60665;53.506;9.582;2023-12-20T11:48:16;21.10;;;5.47;;
72621;SDS011;60665;53.506;9.582;2023-12-20T11:51:41;8.80;;;0.95;;
72621;SDS011;60665;53.506;9.582;2023-12-20T11:55:05;4.13;;;0.85;;
72621;SDS011;60665;53.506;9.582;2023-12-20T11:58:30;7.35;;;1.08;;
72621;SDS011;60665;53.506;9.582;2023-12-20T12:01:54;8.15;;;0.82;;
72621;SDS011;60665;53.506;9.582;2023-12-20T12:05:24;9.00;;;1.23;;
72621;SDS011;60665;53.506;9.582;2023-12-20T12:08:49;6.35;;;1.17;;
72621;SDS011;60665;53.506;9.582;2023-12-20T12:12:13;7.60;;;0.80;;
72621;SDS011;60665;53.506;9.582;2023-12-20T12:15:39;5.70;;;1.00;;
72621;SDS011;60665;53.506;9.582;2023-12-20T12:19:03;6.68;;;1.13;;
72621;SDS011;60665;53.506;9.582;2023-12-20T12:22:30;7.07;;;1.10;;
72621;SDS011;60665;53.506;9.582;2023-12-20T12:25:54;6.47;;;1.77;;
72621;SDS011;60665;53.506;9.582;2023-12-20T12:29:18;5.43;;;1.02;;
72621;SDS011;60665;53.506;9.582;2023-12-20T12:32:43;4.07;;;1.17;;
72621;SDS011;60665;53.506;9.582;2023-12-20T12:36:08;5.13;;;1.33;;
72621;SDS011;60665;53.506;9.582;2023-12-20T12:39:33;5.38;;;1.00;;
72621;SDS011;60665;53.506;9.582;2023-12-20T12:42:59;9.05;;;1.45;;
72621;SDS011;60665;53.506;9.582;2023-12-20T12:46:23;6.80;;;1.55;;
72621;SDS011;60665;53.506;9.582;2023-12-20T12:49:47;6.45;;;1.30;;
72621;SDS011;60665;53.506;9.582;2023-12-20T12:53:12;5.60;;;0.82;;
72621;SDS011;60665;53.506;9.582;2023-12-20T12:56:38;9.07;;;1.95;;
72621;SDS011;60665;53.506;9.582;2023-12-20T13:00:02;6.43;;;1.00;;
72621;SDS011;60665;53.506;9.582;2023-12-20T13:03:26;8.15;;;1.50;;
72621;SDS011;60665;53.506;9.582;2023-12-20T13:06:50;13.80;;;1.50;;
72621;SDS011;60665;53.506;9.582;2023-12-20T13:10:14;10.20;;;1.35;;
72621;SDS011;60665;53.506;9.582;2023-12-20T13:13:38;9.02;;;1.20;;
72621;SDS011;60665;53.506;9.582;2023-12-20T13:17:02;9.30;;;1.58;;
72621;SDS011;60665;53.506;9.582;2023-12-20T13:20:27;12.45;;;2.10;;
72621;SDS011;60665;53.506;9.582;2023-12-20T13:23:51;10.05;;;1.60;;
72621;SDS011;60665;53.506;9.582;2023-12-20T13:27:15;15.73;;;1.98;;
72621;SDS011;60665;53.506;9.582;2023-12-20T13:30:39;9.70;;;1.77;;
72621;SDS011;60665;53.506;9.582;2023-12-20T13:34:04;10.30;;;1.75;;
72621;SDS011;60665;53.506;9.582;2023-12-20T13:37:29;15.60;;;1.70;;
72621;SDS011;60665;53.506;9.582;2023-12-20T13:40:53;14.30;;;1.80;;
72621;SDS011;60665;53.506;9.582;2023-12-20T13:44:17;12.95;;;2.03;;
72621;SDS011;60665;53.506;9.582;2023-12-20T13:47:41;10.40;;;1.73;;
72621;SDS011;60665;53.506;9.582;2023-12-20T13:51:05;11.27;;;1.92;;
72621;SDS011;60665;53.506;9.582;2023-12-20T13:54:29;13.73;;;1.95;;
72621;SDS011;60665;53.506;9.582;2023-12-20T13:57:53;7.82;;;2.13;;
72621;SDS011;60665;53.506;9.582;2023-12-20T14:01:17;10.68;;;1.77;;
72621;SDS011;60665;53.506;9.582;2023-12-20T14:04:43;10.25;;;2.10;;
72621;SDS011;60665;53.506;9.582;2023-12-20T14:08:07;13.27;;;2.25;;
72621;SDS011;60665;53.506;9.582;2023-12-20T14:11:31;13.38;;;2.80;;
72621;SDS011;60665;53.506;9.582;2023-12-20T14:14:55;11.23;;;1.70;;
72621;SDS011;60665;53.506;9.582;2023-12-20T14:18:19;16.77;;;2.45;;
72621;SDS011;60665;53.506;9.582;2023-12-20T14:21:43;7.13;;;1.65;;
72621;SDS011;60665;53.506;9.582;2023-12-20T14:25:11;12.95;;;2.08;;
72621;SDS011;60665;53.506;9.582;2023-12-20T14:28:40;14.45;;;1.60;;
72621;SDS011;60665;53.506;9.582;2023-12-20T14:32:04;14.05;;;1.80;;
72621;SDS011;60665;53.506;9.582;2023-12-20T14:35:28;18.65;;;2.25;;
72621;SDS011;60665;53.506;9.582;2023-12-20T14:38:52;9.60;;;2.00;;
72621;SDS011;60665;53.506;9.582;2023-12-20T14:42:16;11.73;;;2.47;;
72621;SDS011;60665;53.506;9.582;2023-12-20T14:45:41;12.70;;;1.80;;
72621;SDS011;60665;53.506;9.582;2023-12-20T14:49:05;11.65;;;1.95;;
72621;SDS011;60665;53.506;9.582;2023-12-20T14:52:30;9.73;;;1.88;;
72621;SDS011;60665;53.506;9.582;2023-12-20T14:55:53;9.70;;;2.10;;
72621;SDS011;60665;53.506;9.582;2023-12-20T14:59:17;8.68;;;1.88;;
72621;SDS011;60665;53.506;9.582;2023-12-20T15:02:42;7.18;;;1.73;;
72621;SDS011;60665;53.506;9.582;2023-12-20T15:06:06;7.15;;;1.30;;
72621;SDS011;60665;53.506;9.582;2023-12-20T15:09:31;7.18;;;1.52;;
72621;SDS011;60665;53.506;9.582;2023-12-20T15:12:55;20.42;;;1.90;;
72621;SDS011;60665;53.506;9.582;2023-12-20T15:16:23;11.50;;;1.52;;
72621;SDS011;60665;53.506;9.582;2023-12-20T15:19:47;9.25;;;1.35;;
72621;SDS011;60665;53.506;9.582;2023-12-20T15:23:12;9.80;;;1.35;;
72621;SDS011;60665;53.506;9.582;2023-12-20T15:26:45;10.70;;;1.25;;
72621;SDS011;60665;53.506;9.582;2023-12-20T15:30:11;8.32;;;1.33;;
72621;SDS011;60665;53.506;9.582;2023-12-20T15:33:35;9.07;;;1.35;;
72621;SDS011;60665;53.506;9.582;2023-12-20T15:36:58;8.73;;;2.08;;
72621;SDS011;60665;53.506;9.582;2023-12-20T15:40:23;9.13;;;1.25;;
72621;SDS011;60665;53.506;9.582;2023-12-20T15:43:48;6.35;;;1.25;;
72621;SDS011;60665;53.506;9.582;2023-12-20T15:47:12;6.38;;;0.98;;
72621;SDS011;60665;53.506;9.582;2023-12-20T15:50:42;11.10;;;1.40;;
72621;SDS011;60665;53.506;9.582;2023-12-20T15:54:06;7.50;;;1.40;;
72621;SDS011;60665;53.506;9.582;2023-12-20T15:57:30;8.52;;;1.60;;
72621;SDS011;60665;53.506;9.582;2023-12-20T16:00:55;7.82;;;1.27;;
72621;SDS011;60665;53.506;9.582;2023-12-20T16:04:19;7.22;;;1.33;;
72621;SDS011;60665;53.506;9.582;2023-12-20T16:07:44;10.93;;;1.40;;
72621;SDS011;60665;53.506;9.582;2023-12-20T16:11:08;9.05;;;1.05;;
72621;SDS011;60665;53.506;9.582;2023-12-20T16:14:32;10.18;;;1.10;;
72621;SDS011;60665;53.506;9.582;2023-12-20T16:17:56;6.95;;;1.27;;
72621;SDS011;60665;53.506;9.582;2023-12-20T16:21:20;8.45;;;1.55;;
72621;SDS011;60665;53.506;9.582;2023-12-20T16:24:44;8.35;;;1.52;;
72621;SDS011;60665;53.506;9.582;2023-12-20T16:28:07;10.05;;;1.45;;
72621;SDS011;60665;53.506;9.582;2023-12-20T16:31:31;11.25;;;1.27;;
72621;SDS011;60665;53.506;9.582;2023-12-20T16:34:55;6.85;;;1.40;;
72621;SDS011;60665;53.506;9.582;2023-12-20T16:38:20;9.45;;;1.10;;
72621;SDS011;60665;53.506;9.582;2023-12-20T16:41:45;8.50;;;1.15;;
72621;SDS011;60665;53.506;9.582;2023-12-20T16:45:09;6.90;;;1.33;;
72621;SDS011;60665;53.506;9.582;2023-12-20T16:48:33;7.82;;;1.10;;
72621;SDS011;60665;53.506;9.582;2023-12-20T16:51:57;10.75;;;1.63;;
72621;SDS011;60665;53.506;9.582;2023-12-20T16:55:20;7.60;;;1.50;;
72621;SDS011;60665;53.506;9.582;2023-12-20T16:58:44;11.85;;;1.67;;
72621;SDS011;60665;53.506;9.582;2023-12-20T17:02:09;18.70;;;2.65;;
72621;SDS011;60665;53.506;9.582;2023-12-20T17:05:33;15.85;;;1.92;;
72621;SDS011;60665;53.506;9.582;2023-12-20T17:08:57;10.70;;;2.05;;
72621;SDS011;60665;53.506;9.582;2023-12-20T17:12:21;10.85;;;1.95;;
72621;SDS011;60665;53.506;9.582;2023-12-20T17:15:44;8.98;;;1.90;;
72621;SDS011;60665;53.506;9.582;2023-12-20T17:19:08;7.50;;;1.63;;
72621;SDS011;60665;53.506;9.582;2023-12-20T17:22:33;4.75;;;1.27;;
72621;SDS011;60665;53.506;9.582;2023-12-20T17:25:58;7.47;;;1.80;;
72621;SDS011;60665;53.506;9.582;2023-12-20T17:29:21;8.00;;;1.08;;
72621;SDS011;60665;53.506;9.582;2023-12-20T17:32:45;5.72;;;1.05;;
72621;SDS011;60665;53.506;9.582;2023-12-20T17:36:09;5.45;;;0.90;;
72621;SDS011;60665;53.506;9.582;2023-12-20T17:39:33;6.90;;;0.85;;
72621;SDS011;60665;53.506;9.582;2023-12-20T17:42:57;7.53;;;1.05;;
72621;SDS011;60665;53.506;9.582;2023-12-20T17:46:21;4.80;;;1.17;;
72621;SDS011;60665;53.506;9.582;2023-12-20T17:49:45;5.57;;;1.63;;
72621;SDS011;60665;53.506;9.582;2023-12-20T17:53:09;4.63;;;0.75;;
72621;SDS011;60665;53.506;9.582;2023-12-20T17:56:33;10.90;;;1.55;;
72621;SDS011;60665;53.506;9.582;2023-12-20T17:59:57;7.47;;;1.35;;
72621;SDS011;60665;53.506;9.582;2023-12-20T18:03:34;5.53;;;1.35;;
72621;SDS011;60665;53.506;9.582;2023-12-20T18:06:58;6.30;;;1.35;;
72621;SDS011;60665;53.506;9.582;2023-12-20T18:10:22;13.18;;;1.20;;
72621;SDS011;60665;53.506;9.582;2023-12-20T18:13:46;7.85;;;1.20;;
72621;SDS011;60665;53.506;9.582;2023-12-20T18:17:11;7.60;;;1.45;;
72621;SDS011;60665;53.506;9.582;2023-12-20T18:20:38;12.30;;;2.55;;
72621;SDS011;60665;53.506;9.582;2023-12-20T18:24:02;10.55;;;3.30;;
72621;SDS011;60665;53.506;9.582;2023-12-20T18:27:26;5.85;;;1.48;;
72621;SDS011;60665;53.506;9.582;2023-12-20T18:30:50;6.38;;;1.10;;
72621;SDS011;60665;53.506;9.582;2023-12-20T18:34:13;9.77;;;1.15;;
72621;SDS011;60665;53.506;9.582;2023-12-20T18:37:37;8.68;;;1.13;;
72621;SDS011;60665;53.506;9.582;2023-12-20T18:41:01;4.45;;;0.80;;
72621;SDS011;60665;53.506;9.582;2023-12-20T18:44:27;3.40;;;0.98;;
72621;SDS011;60665;53.506;9.582;2023-12-20T18:47:51;10.75;;;1.02;;
72621;SDS011;60665;53.506;9.582;2023-12-20T18:51:16;5.20;;;1.15;;
72621;SDS011;60665;53.506;9.582;2023-12-20T18:54:40;4.40;;;1.08;;
72621;SDS011;60665;53.506;9.582;2023-12-20T18:58:04;4.28;;;0.82;;
72621;SDS011;60665;53.506;9.582;2023-12-20T19:01:28;3.38;;;0.88;;
72621;SDS011;60665;53.506;9.582;2023-12-20T19:04:55;2.72;;;0.90;;
72621;SDS011;60665;53.506;9.582;2023-12-20T19:08:19;2.40;;;0.60;;
72621;SDS011;60665;53.506;9.582;2023-12-20T19:11:43;6.10;;;0.70;;
72621;SDS011;60665;53.506;9.582;2023-12-20T19:15:07;4.20;;;0.65;;
72621;SDS011;60665;53.506;9.582;2023-12-20T19:18:31;5.07;;;0.70;;
72621;SDS011;60665;53.506;9.582;2023-12-20T19:21:55;4.20;;;0.85;;
72621;SDS011;60665;53.506;9.582;2023-12-20T19:25:19;1.85;;;0.60;;
72621;SDS011;60665;53.506;9.582;2023-12-20T19:28:43;8.43;;;1.00;;
72621;SDS011;60665;53.506;9.582;2023-12-20T19:32:07;5.28;;;0.90;;
72621;SDS011;60665;53.506;9.582;2023-12-20T19:35:31;2.63;;;0.65;;
72621;SDS011;60665;53.506;9.582;2023-12-20T19:38:55;4.50;;;0.80;;
72621;SDS011;60665;53.506;9.582;2023-12-20T19:42:19;3.13;;;0.80;;
72621;SDS011;60665;53.506;9.582;2023-12-20T19:45:42;2.83;;;0.82;;
72621;SDS011;60665;53.506;9.582;2023-12-20T19:49:07;5.53;;;0.90;;
72621;SDS011;60665;53.506;9.582;2023-12-20T19:52:31;5.03;;;0.90;;
72621;SDS011;60665;53.506;9.582;2023-12-20T19:55:55;7.70;;;1.40;;
72621;SDS011;60665;53.506;9.582;2023-12-20T19:59:19;3.53;;;1.00;;
72621;SDS011;60665;53.506;9.582;2023-12-20T20:02:43;4.65;;;0.90;;
72621;SDS011;60665;53.506;9.582;2023-12-20T20:06:07;4.95;;;1.35;;
72621;SDS011;60665;53.506;9.582;2023-12-20T20:09:34;5.15;;;1.50;;
72621;SDS011;60665;53.506;9.582;2023-12-20T20:12:58;9.43;;;1.30;;
72621;SDS011;60665;53.506;9.582;2023-12-20T20:16:23;8.73;;;1.95;;
72621;SDS011;60665;53.506;9.582;2023-12-20T20:19:47;8.75;;;1.60;;
72621;SDS011;60665;53.506;9.582;2023-12-20T20:23:11;6.55;;;1.83;;
72621;SDS011;60665;53.506;9.582;2023-12-20T20:26:35;6.90;;;1.60;;
72621;SDS011;60665;53.506;9.582;2023-12-20T20:30:00;6.15;;;2.05;;